createdAt,value
2022-10-19T00:05:29.719Z,16.20
2022-10-19T00:15:31.112Z,16.14
2022-10-19T00:25:32.474Z,16.13
2022-10-19T00:35:33.980Z,16.09
2022-10-19T00:45:35.348Z,15.97
2022-10-19T00:55:37.205Z,15.94
2022-10-19T01:05:38.634Z,15.78
2022-10-19T01:16:00.297Z,15.77
2022-10-19T01:26:15.305Z,15.79
2022-10-19T01:36:38.120Z,15.66
2022-10-19T01:46:40.649Z,15.67
2022-10-19T01:56:43.108Z,15.62
2022-10-19T02:06:44.498Z,15.65
2022-10-19T02:16:51.186Z,15.54
2022-10-19T02:26:52.703Z,15.48
2022-10-19T02:36:54.565Z,15.45
2022-10-19T02:47:02.400Z,15.23
2022-10-19T02:57:15.038Z,15.03
2022-10-19T03:07:18.088Z,15.03
2022-10-19T03:17:19.528Z,14.87
2022-10-19T03:27:21.022Z,14.97
2022-10-19T03:37:22.429Z,14.95
2022-10-19T03:47:23.829Z,14.88
2022-10-19T03:57:25.226Z,14.74
2022-10-19T04:07:26.591Z,14.65
2022-10-19T04:17:27.957Z,14.67
2022-10-19T04:27:29.338Z,14.67
2022-10-19T04:37:30.924Z,14.72
2022-10-19T04:47:32.838Z,14.70
2022-10-19T04:57:34.758Z,14.63
2022-10-19T05:07:36.689Z,14.58
2022-10-19T05:17:38.124Z,14.50
2022-10-19T05:27:39.511Z,14.55
2022-10-19T05:37:40.888Z,14.52
2022-10-19T05:47:42.284Z,14.57
2022-10-19T05:57:44.046Z,14.42
2022-10-19T06:07:45.695Z,14.33
2022-10-19T06:17:47.149Z,14.41
2022-10-19T06:27:48.573Z,14.45
2022-10-19T06:37:50.054Z,14.43
2022-10-19T06:47:51.846Z,14.49
2022-10-19T06:57:53.234Z,14.70
2022-10-19T07:07:54.777Z,15.81
2022-10-19T07:17:56.208Z,16.63
2022-10-19T07:27:57.581Z,17.29
2022-10-19T07:37:59.056Z,17.91
2022-10-19T07:48:00.459Z,18.59
2022-10-19T07:58:01.965Z,19.04
2022-10-19T08:08:03.593Z,19.52
2022-10-19T08:18:05.026Z,20.23
2022-10-19T08:28:06.542Z,20.78
2022-10-19T08:38:07.917Z,21.22
2022-10-19T08:48:24.259Z,21.54
2022-10-19T08:58:51.071Z,21.85
2022-10-19T09:08:53.599Z,22.32
2022-10-19T09:29:03.343Z,24.39
2022-10-19T09:39:04.812Z,24.99
2022-10-19T09:49:06.200Z,21.96
2022-10-19T09:59:19.893Z,21.26
2022-10-19T10:09:26.239Z,20.93
2022-10-19T10:19:28.886Z,20.77
2022-10-19T10:29:34.407Z,20.59
2022-10-19T10:39:40.913Z,20.35
2022-10-19T10:49:45.088Z,20.20
2022-10-19T11:00:11.089Z,20.01
2022-10-19T11:10:27.031Z,19.92
2022-10-19T11:20:30.028Z,19.83
2022-10-19T11:30:33.299Z,19.79
2022-10-19T11:40:49.740Z,19.70
2022-10-19T11:51:22.016Z,19.58
2022-10-19T12:01:29.558Z,19.57
2022-10-19T12:11:56.079Z,19.54
2022-10-19T12:22:01.765Z,19.48
2022-10-19T12:32:03.217Z,19.46
2022-10-19T12:42:24.855Z,19.43
2022-10-19T12:52:38.476Z,19.44
2022-10-19T13:02:40.102Z,19.41
2022-10-19T13:12:44.121Z,19.39
2022-10-19T13:22:46.249Z,19.39
2022-10-19T13:32:47.686Z,19.38
2022-10-19T13:42:57.867Z,19.34
2022-10-19T13:53:05.953Z,19.33
2022-10-19T14:03:20.906Z,19.31
2022-10-19T14:13:22.335Z,19.30
2022-10-19T14:23:25.741Z,19.31
2022-10-19T14:33:28.441Z,19.28
2022-10-19T14:43:31.772Z,19.27
2022-10-19T14:53:36.045Z,19.25
2022-10-19T15:03:42.812Z,19.22
2022-10-19T15:13:45.451Z,19.19
2022-10-19T15:23:50.704Z,19.18
2022-10-19T15:33:57.122Z,19.14
2022-10-19T15:44:00.316Z,19.08
2022-10-19T15:54:03.944Z,18.96
2022-10-19T16:04:05.521Z,18.83
2022-10-19T16:14:07.194Z,18.70
2022-10-19T16:24:08.669Z,18.55
2022-10-19T16:34:10.045Z,18.42
2022-10-19T16:44:12.249Z,18.29
2022-10-19T16:54:14.938Z,18.16
2022-10-19T17:04:17.894Z,18.02
2022-10-19T17:14:19.342Z,17.91
2022-10-19T17:24:22.378Z,17.80
2022-10-19T17:34:23.797Z,17.68
2022-10-19T17:44:25.178Z,17.59
2022-10-19T17:54:26.669Z,17.48
2022-10-19T18:04:28.168Z,17.36
2022-10-19T18:14:29.742Z,17.25
2022-10-19T18:24:32.851Z,17.20
2022-10-19T18:34:34.493Z,17.17
2022-10-19T18:44:35.861Z,17.11
2022-10-19T18:54:37.286Z,17.04
2022-10-19T19:04:38.759Z,17.01
2022-10-19T19:14:41.823Z,16.91
2022-10-19T19:24:43.818Z,16.90
2022-10-19T19:34:45.219Z,16.80
2022-10-19T19:44:46.649Z,16.73
2022-10-19T19:54:48.622Z,16.63
2022-10-19T20:04:50.133Z,16.54
2022-10-19T20:14:51.678Z,16.48
2022-10-19T20:24:53.604Z,16.48
2022-10-19T20:34:55.604Z,16.41
2022-10-19T20:44:56.994Z,16.35
2022-10-19T20:54:58.382Z,16.36
2022-10-19T21:04:59.787Z,16.30
2022-10-19T21:15:01.193Z,16.25
2022-10-19T21:25:02.612Z,16.19
2022-10-19T21:35:05.767Z,16.09
2022-10-19T21:45:25.725Z,16.07
2022-10-19T21:55:33.285Z,16.09
2022-10-19T22:05:34.666Z,16.02
2022-10-19T22:15:39.917Z,16.05
2022-10-19T22:25:41.286Z,16.02
2022-10-19T22:35:42.662Z,16.00
2022-10-19T22:45:47.628Z,15.99
2022-10-19T22:55:49.000Z,15.95
2022-10-19T23:05:50.381Z,15.87
2022-10-19T23:15:51.870Z,15.85
2022-10-19T23:26:06.483Z,15.85
2022-10-19T23:36:19.908Z,15.83
2022-10-19T23:46:21.393Z,15.79
2022-10-19T23:56:24.259Z,15.79
